YSDU

Details ICAO YSDU (DBO)
Name Dubbo
Region Australia
Timezone Australia/Sydney (UTC+11.0)
Plans Departing 21
Arriving 34
Stats Elevation 935 ft / 285 m (AMSL)
Location -32.217486° 148.577269°
Runways 2
Magnetic Variation 11.082° E
Sunrise 2017-12-10 18:53:47 UTC / 2017-12-11 05:53:47 Local
Sunset 2017-12-11 09:06:39 UTC / 2017-12-11 20:06:39 Local
Advertisement - Login to hide

Runways

ID Width Length Bearing (true) Bearing (mag) Surface Threshold Offset Overrun Length
05 148 ft / 45 m 5,605 ft / 1,708 m 53.60° 42.52° Asphalt 0 ft / 0 m 0 ft / 0 m
11 59 ft / 18 m 3,498 ft / 1,066 m 119.18° 108.10° Asphalt 0 ft / 0 m 0 ft / 0 m
23 148 ft / 45 m 5,605 ft / 1,708 m 233.60° 222.52° Asphalt 0 ft / 0 m 0 ft / 0 m
29 59 ft / 18 m 3,498 ft / 1,066 m 299.17° 288.09° Asphalt 0 ft / 0 m 0 ft / 0 m

Map

Weather


0- 5 10 15 20 25 30 35+ Temperature / ° C

Clouds and Precipitation
Forecast for 2017-12-11 12:00 UTC. Updated 40 minutes ago

Ground ~20,000 ft ~40,000 ft Winds

METAR

YSDU 111200Z AUTO 18009KT 9999 // NCD 25/09 Q1016

TAF

TAF YSDU 111052Z 1112/1206 10007KT CAVOK FM112000 05010KT CAVOK FM120200 27005KT CAVOK

Frequencies

Unicom 121.30 MHz ACTIVATE LIGHTS ONLY MULT
Unicom 123.90 MHz MELBOURNE CENTRE MULT
Unicom 134.00 MHz DUBBO MULT
Warning: Do not use this data for real-world aviation or navigation. No guarantee of current accuracy is given.